This is the latest recevied weather packets stored in our database for station/object EA5CH. If no packets are shown the sender has not sent any weather packets the latest 10 day(s).
| Time | Temp. | Humidity | Pressure | Rain* | Wind** | Luminosity | Snow |
|---|---|---|---|---|---|---|---|
| 1777375519 | 18.89° C | 73% | 1015 hPa | 0 mm | - | - | - |
| 1777373119 | 20° C | 60% | 1016.3 hPa | 0 mm | - | - | - |
| 1777371319 | 20° C | 53% | 1015.9 hPa | 0 mm | - | - | - |
| 1777370119 | 20.56° C | 50% | 1015.7 hPa | 0 mm | - | - | - |
| 1777367719 | 19.44° C | 59% | 1014.3 hPa | 0 mm | - | - | - |
| 1777367159 | 19.44° C | 55% | 1014.1 hPa | 0 mm | - | - | - |
| 1777364727 | 21.11° C | 39% | 1015 hPa | 0 mm | - | - | - |
| 1777357518 | 15.56° C | 64% | 1015.2 hPa | 0 mm | - | - | - |
| 1777352168 | 13.89° C | 61% | 1014.9 hPa | 0 mm | - | - | - |
| 1777350919 | 13.89° C | 66% | 1014.8 hPa | 0 mm | - | - | - |
| 1777349719 | 13.89° C | 66% | 1014.8 hPa | 0 mm | - | - | - |
| 1777349119 | 13.89° C | 65% | 1014.9 hPa | 0 mm | - | - | - |
| 1777344319 | 13.89° C | 71% | 1015.4 hPa | 0 mm | - | - | - |
| 1777343728 | 13.89° C | 74% | 1015.4 hPa | 0 mm | - | - | - |
| 1777343119 | 13.89° C | 73% | 1015.5 hPa | 0 mm | - | - | - |
| 1777341939 | 14.44° C | 72% | 1015.7 hPa | 0 mm | - | - | - |
| 1777334139 | 15.56° C | 70% | 1017 hPa | 0 mm | - | - | - |
| 1777330519 | 15° C | 76% | 1017.5 hPa | 0 mm | - | - | - |
| 1777329339 | 15° C | 77% | 1017.7 hPa | 0 mm | - | - | - |
| 1777325719 | 16.11° C | 79% | 1018 hPa | 0 mm | - | - | - |
| 1777313719 | 18.89° C | 81% | 1017.5 hPa | 0 mm | - | - | - |
| 1777311319 | 18.89° C | 80% | 1017.5 hPa | 0 mm | - | - | - |
| 1777310119 | 19.44° C | 78% | 1017.5 hPa | 0 mm | - | - | - |
| 1777307719 | 19.44° C | 77% | 1017.7 hPa | 0 mm | - | - | - |
| 1777306559 | 19.44° C | 77% | 1017.7 hPa | 0 mm | - | - | - |
* Rain latest hour (hover to see other rain measurements)
** Current wind speed in m/s (hover to see current wind gust speed)